sensor_id;sensor_type;location;lat;lon;timestamp;temperature;humidity
74153;DHT22;62505;46.070;14.492;2023-04-22T00:01:28;21.40;64.90
74153;DHT22;62505;46.070;14.492;2023-04-22T00:03:55;21.40;64.80
74153;DHT22;62505;46.070;14.492;2023-04-22T00:06:22;21.40;64.90
74153;DHT22;62505;46.070;14.492;2023-04-22T00:08:51;21.40;64.90
74153;DHT22;62505;46.070;14.492;2023-04-22T00:11:18;21.30;64.80
74153;DHT22;62505;46.070;14.492;2023-04-22T00:13:45;21.40;64.90
74153;DHT22;62505;46.070;14.492;2023-04-22T00:16:12;21.40;64.90
74153;DHT22;62505;46.070;14.492;2023-04-22T00:18:39;21.40;64.80
74153;DHT22;62505;46.070;14.492;2023-04-22T00:21:06;21.40;64.90
74153;DHT22;62505;46.070;14.492;2023-04-22T00:23:33;21.40;64.90
74153;DHT22;62505;46.070;14.492;2023-04-22T00:26:01;21.30;64.80
74153;DHT22;62505;46.070;14.492;2023-04-22T00:28:29;21.30;64.80
74153;DHT22;62505;46.070;14.492;2023-04-22T00:30:56;21.40;64.90
74153;DHT22;62505;46.070;14.492;2023-04-22T00:33:23;21.40;64.90
74153;DHT22;62505;46.070;14.492;2023-04-22T00:35:50;21.40;64.90
74153;DHT22;62505;46.070;14.492;2023-04-22T00:38:19;21.40;64.90
74153;DHT22;62505;46.070;14.492;2023-04-22T00:40:46;21.40;64.90
74153;DHT22;62505;46.070;14.492;2023-04-22T00:43:15;21.40;64.80
74153;DHT22;62505;46.070;14.492;2023-04-22T00:45:43;21.40;64.90
74153;DHT22;62505;46.070;14.492;2023-04-22T00:48:12;21.40;64.90
74153;DHT22;62505;46.070;14.492;2023-04-22T00:50:39;21.30;64.80
74153;DHT22;62505;46.070;14.492;2023-04-22T00:53:06;21.30;64.80
74153;DHT22;62505;46.070;14.492;2023-04-22T00:55:33;21.40;64.80
74153;DHT22;62505;46.070;14.492;2023-04-22T00:58:00;21.30;64.80
74153;DHT22;62505;46.070;14.492;2023-04-22T01:00:29;21.40;64.80
74153;DHT22;62505;46.070;14.492;2023-04-22T01:02:57;21.30;64.80
74153;DHT22;62505;46.070;14.492;2023-04-22T01:05:24;21.30;64.80
74153;DHT22;62505;46.070;14.492;2023-04-22T01:07:51;21.30;64.80
74153;DHT22;62505;46.070;14.492;2023-04-22T01:10:18;21.30;64.80
74153;DHT22;62505;46.070;14.492;2023-04-22T01:12:45;21.40;64.80
74153;DHT22;62505;46.070;14.492;2023-04-22T01:15:12;21.40;64.80
74153;DHT22;62505;46.070;14.492;2023-04-22T01:17:41;21.30;64.80
74153;DHT22;62505;46.070;14.492;2023-04-22T01:20:08;21.30;64.80
74153;DHT22;62505;46.070;14.492;2023-04-22T01:22:40;21.30;64.80
74153;DHT22;62505;46.070;14.492;2023-04-22T01:25:10;21.30;64.80
74153;DHT22;62505;46.070;14.492;2023-04-22T01:27:38;21.30;64.70
74153;DHT22;62505;46.070;14.492;2023-04-22T01:30:06;21.30;64.70
74153;DHT22;62505;46.070;14.492;2023-04-22T01:32:34;21.30;64.70
74153;DHT22;62505;46.070;14.492;2023-04-22T01:35:01;21.30;64.80
74153;DHT22;62505;46.070;14.492;2023-04-22T01:37:28;21.30;64.80
74153;DHT22;62505;46.070;14.492;2023-04-22T01:39:56;21.30;64.70
74153;DHT22;62505;46.070;14.492;2023-04-22T01:42:25;21.30;64.70
74153;DHT22;62505;46.070;14.492;2023-04-22T01:44:52;21.30;64.70
74153;DHT22;62505;46.070;14.492;2023-04-22T01:47:19;21.30;64.70
74153;DHT22;62505;46.070;14.492;2023-04-22T01:49:46;21.30;64.70
74153;DHT22;62505;46.070;14.492;2023-04-22T01:52:13;21.30;64.70
74153;DHT22;62505;46.070;14.492;2023-04-22T01:54:41;21.30;64.70
74153;DHT22;62505;46.070;14.492;2023-04-22T01:57:09;21.30;64.60
74153;DHT22;62505;46.070;14.492;2023-04-22T01:59:39;21.30;64.70
74153;DHT22;62505;46.070;14.492;2023-04-22T02:02:07;21.30;64.60
74153;DHT22;62505;46.070;14.492;2023-04-22T02:04:34;21.30;64.60
74153;DHT22;62505;46.070;14.492;2023-04-22T02:07:01;21.30;64.60
74153;DHT22;62505;46.070;14.492;2023-04-22T02:09:28;21.30;64.60
74153;DHT22;62505;46.070;14.492;2023-04-22T02:11:55;21.30;64.60
74153;DHT22;62505;46.070;14.492;2023-04-22T02:14:22;21.30;64.60
74153;DHT22;62505;46.070;14.492;2023-04-22T02:16:50;21.30;64.60
74153;DHT22;62505;46.070;14.492;2023-04-22T02:19:17;21.30;64.60
74153;DHT22;62505;46.070;14.492;2023-04-22T02:21:44;21.30;64.60
74153;DHT22;62505;46.070;14.492;2023-04-22T02:24:11;21.30;64.60
74153;DHT22;62505;46.070;14.492;2023-04-22T02:26:38;21.30;64.60
74153;DHT22;62505;46.070;14.492;2023-04-22T02:29:06;21.30;64.60
74153;DHT22;62505;46.070;14.492;2023-04-22T02:31:33;21.30;64.60
74153;DHT22;62505;46.070;14.492;2023-04-22T02:34:01;21.30;64.60
74153;DHT22;62505;46.070;14.492;2023-04-22T02:36:28;21.30;65.40
74153;DHT22;62505;46.070;14.492;2023-04-22T02:38:56;21.30;64.60
74153;DHT22;62505;46.070;14.492;2023-04-22T02:41:23;21.30;64.60
74153;DHT22;62505;46.070;14.492;2023-04-22T02:43:50;21.30;64.60
74153;DHT22;62505;46.070;14.492;2023-04-22T02:46:17;21.30;64.60
74153;DHT22;62505;46.070;14.492;2023-04-22T02:48:44;21.30;64.60
74153;DHT22;62505;46.070;14.492;2023-04-22T02:51:13;21.30;64.60
74153;DHT22;62505;46.070;14.492;2023-04-22T02:53:40;21.30;64.60
74153;DHT22;62505;46.070;14.492;2023-04-22T02:56:07;21.30;64.60
74153;DHT22;62505;46.070;14.492;2023-04-22T02:58:34;21.30;64.60
74153;DHT22;62505;46.070;14.492;2023-04-22T03:01:01;21.30;64.60
74153;DHT22;62505;46.070;14.492;2023-04-22T03:03:28;21.30;64.60
74153;DHT22;62505;46.070;14.492;2023-04-22T03:05:56;21.30;64.60
74153;DHT22;62505;46.070;14.492;2023-04-22T03:08:24;21.30;64.60
74153;DHT22;62505;46.070;14.492;2023-04-22T03:10:51;21.30;64.60
74153;DHT22;62505;46.070;14.492;2023-04-22T03:13:18;21.30;64.50
74153;DHT22;62505;46.070;14.492;2023-04-22T03:15:45;21.30;64.50
74153;DHT22;62505;46.070;14.492;2023-04-22T03:18:12;21.30;64.60
74153;DHT22;62505;46.070;14.492;2023-04-22T03:20:39;21.30;64.60
74153;DHT22;62505;46.070;14.492;2023-04-22T03:23:06;21.30;64.50
74153;DHT22;62505;46.070;14.492;2023-04-22T03:25:35;21.30;64.50
74153;DHT22;62505;46.070;14.492;2023-04-22T03:28:02;21.30;64.50
74153;DHT22;62505;46.070;14.492;2023-04-22T03:30:29;21.30;64.50
74153;DHT22;62505;46.070;14.492;2023-04-22T03:32:57;21.30;64.60
74153;DHT22;62505;46.070;14.492;2023-04-22T03:35:24;21.30;64.50
74153;DHT22;62505;46.070;14.492;2023-04-22T03:37:51;21.30;64.50
74153;DHT22;62505;46.070;14.492;2023-04-22T03:40:18;21.30;64.50
74153;DHT22;62505;46.070;14.492;2023-04-22T03:42:46;21.30;64.50
74153;DHT22;62505;46.070;14.492;2023-04-22T03:45:13;21.30;64.50
74153;DHT22;62505;46.070;14.492;2023-04-22T03:47:40;21.30;64.50
74153;DHT22;62505;46.070;14.492;2023-04-22T03:50:07;21.30;64.50
74153;DHT22;62505;46.070;14.492;2023-04-22T03:52:34;21.30;64.50
74153;DHT22;62505;46.070;14.492;2023-04-22T03:55:02;21.30;64.50
74153;DHT22;62505;46.070;14.492;2023-04-22T03:57:29;21.30;64.50
74153;DHT22;62505;46.070;14.492;2023-04-22T03:59:57;21.30;64.50
74153;DHT22;62505;46.070;14.492;2023-04-22T04:02:24;21.30;64.50
74153;DHT22;62505;46.070;14.492;2023-04-22T04:04:51;21.30;65.30
74153;DHT22;62505;46.070;14.492;2023-04-22T04:07:18;21.30;64.50
74153;DHT22;62505;46.070;14.492;2023-04-22T04:09:45;21.30;64.50
74153;DHT22;62505;46.070;14.492;2023-04-22T04:12:12;21.30;64.50
74153;DHT22;62505;46.070;14.492;2023-04-22T04:14:39;21.30;64.50
74153;DHT22;62505;46.070;14.492;2023-04-22T04:17:07;21.30;64.50
74153;DHT22;62505;46.070;14.492;2023-04-22T04:19:35;21.30;64.50
74153;DHT22;62505;46.070;14.492;2023-04-22T04:22:02;21.30;64.50
74153;DHT22;62505;46.070;14.492;2023-04-22T04:24:29;21.30;64.40
74153;DHT22;62505;46.070;14.492;2023-04-22T04:26:56;21.30;64.50
74153;DHT22;62505;46.070;14.492;2023-04-22T04:29:23;21.30;64.50
74153;DHT22;62505;46.070;14.492;2023-04-22T04:31:51;21.30;64.40
74153;DHT22;62505;46.070;14.492;2023-04-22T04:34:19;21.30;64.40
74153;DHT22;62505;46.070;14.492;2023-04-22T04:36:47;21.30;64.40
74153;DHT22;62505;46.070;14.492;2023-04-22T04:39:14;21.30;64.40
74153;DHT22;62505;46.070;14.492;2023-04-22T04:41:43;21.30;64.40
74153;DHT22;62505;46.070;14.492;2023-04-22T04:44:10;21.30;64.40
74153;DHT22;62505;46.070;14.492;2023-04-22T04:46:37;21.30;64.40
74153;DHT22;62505;46.070;14.492;2023-04-22T04:49:05;21.30;64.40
74153;DHT22;62505;46.070;14.492;2023-04-22T04:51:35;21.30;64.40
74153;DHT22;62505;46.070;14.492;2023-04-22T04:54:02;21.30;64.40
74153;DHT22;62505;46.070;14.492;2023-04-22T04:56:29;21.30;64.40
74153;DHT22;62505;46.070;14.492;2023-04-22T04:58:56;21.30;64.50
74153;DHT22;62505;46.070;14.492;2023-04-22T05:01:23;21.30;64.80
74153;DHT22;62505;46.070;14.492;2023-04-22T05:03:50;21.30;64.80
74153;DHT22;62505;46.070;14.492;2023-04-22T05:06:17;21.40;65.00
74153;DHT22;62505;46.070;14.492;2023-04-22T05:08:45;21.40;65.10
74153;DHT22;62505;46.070;14.492;2023-04-22T05:11:12;21.30;64.90
74153;DHT22;62505;46.070;14.492;2023-04-22T05:13:39;21.40;65.30
74153;DHT22;62505;46.070;14.492;2023-04-22T05:16:06;21.40;65.60
74153;DHT22;62505;46.070;14.492;2023-04-22T05:18:33;21.40;66.00
74153;DHT22;62505;46.070;14.492;2023-04-22T05:21:00;21.40;65.70
74153;DHT22;62505;46.070;14.492;2023-04-22T05:23:28;21.40;65.80
74153;DHT22;62505;46.070;14.492;2023-04-22T05:25:57;21.40;66.20
74153;DHT22;62505;46.070;14.492;2023-04-22T05:28:24;21.40;66.10
74153;DHT22;62505;46.070;14.492;2023-04-22T05:30:51;21.50;66.40
74153;DHT22;62505;46.070;14.492;2023-04-22T05:33:18;21.40;66.40
74153;DHT22;62505;46.070;14.492;2023-04-22T05:35:45;21.50;67.40
74153;DHT22;62505;46.070;14.492;2023-04-22T05:38:12;21.50;67.60
74153;DHT22;62505;46.070;14.492;2023-04-22T05:40:39;21.50;68.20
74153;DHT22;62505;46.070;14.492;2023-04-22T05:43:08;21.50;67.20
74153;DHT22;62505;46.070;14.492;2023-04-22T05:45:35;21.50;67.80
74153;DHT22;62505;46.070;14.492;2023-04-22T05:48:02;21.50;67.80
74153;DHT22;62505;46.070;14.492;2023-04-22T05:50:29;21.50;67.70
74153;DHT22;62505;46.070;14.492;2023-04-22T05:52:56;21.40;67.60
74153;DHT22;62505;46.070;14.492;2023-04-22T05:55:23;21.40;67.50
74153;DHT22;62505;46.070;14.492;2023-04-22T05:57:50;21.40;67.20
74153;DHT22;62505;46.070;14.492;2023-04-22T06:00:19;21.40;67.20
74153;DHT22;62505;46.070;14.492;2023-04-22T06:02:46;21.40;67.10
74153;DHT22;62505;46.070;14.492;2023-04-22T06:05:13;21.40;67.00
74153;DHT22;62505;46.070;14.492;2023-04-22T06:07:40;21.40;67.00
74153;DHT22;62505;46.070;14.492;2023-04-22T06:10:08;21.40;66.80
74153;DHT22;62505;46.070;14.492;2023-04-22T06:12:35;21.40;66.80
74153;DHT22;62505;46.070;14.492;2023-04-22T06:15:03;21.40;66.70
74153;DHT22;62505;46.070;14.492;2023-04-22T06:17:32;21.40;66.60
74153;DHT22;62505;46.070;14.492;2023-04-22T06:20:00;21.40;66.50
74153;DHT22;62505;46.070;14.492;2023-04-22T06:22:27;21.40;66.50
74153;DHT22;62505;46.070;14.492;2023-04-22T06:24:54;21.40;66.40
74153;DHT22;62505;46.070;14.492;2023-04-22T06:27:21;21.40;66.40
74153;DHT22;62505;46.070;14.492;2023-04-22T06:29:48;21.40;66.40
74153;DHT22;62505;46.070;14.492;2023-04-22T06:32:15;21.40;66.40
74153;DHT22;62505;46.070;14.492;2023-04-22T06:34:43;21.40;66.30
74153;DHT22;62505;46.070;14.492;2023-04-22T06:37:10;21.40;66.20
74153;DHT22;62505;46.070;14.492;2023-04-22T06:39:37;21.40;66.20
74153;DHT22;62505;46.070;14.492;2023-04-22T06:42:04;21.40;66.20
74153;DHT22;62505;46.070;14.492;2023-04-22T06:44:31;21.40;66.10
74153;DHT22;62505;46.070;14.492;2023-04-22T06:46:58;21.40;66.10
74153;DHT22;62505;46.070;14.492;2023-04-22T06:49:25;21.40;66.10
74153;DHT22;62505;46.070;14.492;2023-04-22T06:51:53;21.40;66.10
74153;DHT22;62505;46.070;14.492;2023-04-22T06:54:20;21.40;66.20
74153;DHT22;62505;46.070;14.492;2023-04-22T06:56:47;21.40;65.90
74153;DHT22;62505;46.070;14.492;2023-04-22T06:59:14;21.40;65.80
74153;DHT22;62505;46.070;14.492;2023-04-22T07:01:41;21.40;66.00
74153;DHT22;62505;46.070;14.492;2023-04-22T07:04:08;21.40;66.00
74153;DHT22;62505;46.070;14.492;2023-04-22T07:06:36;21.40;66.00
74153;DHT22;62505;46.070;14.492;2023-04-22T07:09:06;21.40;65.90
74153;DHT22;62505;46.070;14.492;2023-04-22T07:11:34;21.40;65.90
74153;DHT22;62505;46.070;14.492;2023-04-22T07:14:01;21.40;65.80
74153;DHT22;62505;46.070;14.492;2023-04-22T07:16:28;21.40;65.80
74153;DHT22;62505;46.070;14.492;2023-04-22T07:18:55;21.40;65.90
74153;DHT22;62505;46.070;14.492;2023-04-22T07:21:23;21.40;65.80
74153;DHT22;62505;46.070;14.492;2023-04-22T07:23:50;21.40;65.80
74153;DHT22;62505;46.070;14.492;2023-04-22T07:26:19;21.40;65.70
74153;DHT22;62505;46.070;14.492;2023-04-22T07:28:46;21.40;65.70
74153;DHT22;62505;46.070;14.492;2023-04-22T07:31:13;21.40;65.70
74153;DHT22;62505;46.070;14.492;2023-04-22T07:33:40;21.40;65.80
74153;DHT22;62505;46.070;14.492;2023-04-22T07:36:07;21.40;65.70
74153;DHT22;62505;46.070;14.492;2023-04-22T07:38:34;21.40;65.70
74153;DHT22;62505;46.070;14.492;2023-04-22T07:41:01;21.40;65.70
74153;DHT22;62505;46.070;14.492;2023-04-22T07:43:29;21.40;65.70
74153;DHT22;62505;46.070;14.492;2023-04-22T07:45:56;21.40;65.60
74153;DHT22;62505;46.070;14.492;2023-04-22T07:48:23;21.40;65.80
74153;DHT22;62505;46.070;14.492;2023-04-22T07:50:50;21.40;65.90
74153;DHT22;62505;46.070;14.492;2023-04-22T07:53:17;21.40;65.70
74153;DHT22;62505;46.070;14.492;2023-04-22T07:55:45;21.40;65.70
74153;DHT22;62505;46.070;14.492;2023-04-22T07:58:14;21.50;65.70
74153;DHT22;62505;46.070;14.492;2023-04-22T08:00:42;21.50;65.70
74153;DHT22;62505;46.070;14.492;2023-04-22T08:03:09;21.50;65.80
74153;DHT22;62505;46.070;14.492;2023-04-22T08:05:36;21.40;65.70
74153;DHT22;62505;46.070;14.492;2023-04-22T08:08:04;21.50;65.90
74153;DHT22;62505;46.070;14.492;2023-04-22T08:10:33;21.50;66.10
74153;DHT22;62505;46.070;14.492;2023-04-22T08:13:01;21.50;66.10
74153;DHT22;62505;46.070;14.492;2023-04-22T08:15:28;21.50;66.10
74153;DHT22;62505;46.070;14.492;2023-04-22T08:17:56;21.50;66.00
74153;DHT22;62505;46.070;14.492;2023-04-22T08:20:23;21.50;66.00
74153;DHT22;62505;46.070;14.492;2023-04-22T08:22:50;21.50;66.00
74153;DHT22;62505;46.070;14.492;2023-04-22T08:25:24;21.50;66.10
74153;DHT22;62505;46.070;14.492;2023-04-22T08:27:51;21.50;66.20
74153;DHT22;62505;46.070;14.492;2023-04-22T08:30:19;21.60;67.00
74153;DHT22;62505;46.070;14.492;2023-04-22T08:32:46;21.50;66.90
74153;DHT22;62505;46.070;14.492;2023-04-22T08:35:14;21.50;68.40
74153;DHT22;62505;46.070;14.492;2023-04-22T08:37:41;21.50;70.00
74153;DHT22;62505;46.070;14.492;2023-04-22T08:40:08;21.50;71.40
74153;DHT22;62505;46.070;14.492;2023-04-22T08:42:36;21.50;71.80
74153;DHT22;62505;46.070;14.492;2023-04-22T08:45:04;21.50;72.10
74153;DHT22;62505;46.070;14.492;2023-04-22T08:47:32;21.50;72.20
74153;DHT22;62505;46.070;14.492;2023-04-22T08:50:01;21.50;72.80
74153;DHT22;62505;46.070;14.492;2023-04-22T08:52:31;21.50;72.80
74153;DHT22;62505;46.070;14.492;2023-04-22T08:54:58;21.50;73.70
74153;DHT22;62505;46.070;14.492;2023-04-22T08:57:25;21.50;73.70
74153;DHT22;62505;46.070;14.492;2023-04-22T08:59:53;21.50;73.90
74153;DHT22;62505;46.070;14.492;2023-04-22T09:02:22;21.50;74.00
74153;DHT22;62505;46.070;14.492;2023-04-22T09:04:51;21.50;74.40
74153;DHT22;62505;46.070;14.492;2023-04-22T09:07:22;21.50;74.90
74153;DHT22;62505;46.070;14.492;2023-04-22T09:09:52;21.50;75.20
74153;DHT22;62505;46.070;14.492;2023-04-22T09:12:19;21.40;75.60
74153;DHT22;62505;46.070;14.492;2023-04-22T09:14:46;21.50;75.60
74153;DHT22;62505;46.070;14.492;2023-04-22T09:17:14;21.50;74.90
74153;DHT22;62505;46.070;14.492;2023-04-22T09:19:44;21.50;73.60
74153;DHT22;62505;46.070;14.492;2023-04-22T09:22:12;21.50;72.20
74153;DHT22;62505;46.070;14.492;2023-04-22T09:24:48;21.50;72.10
74153;DHT22;62505;46.070;14.492;2023-04-22T09:27:17;21.50;70.90
74153;DHT22;62505;46.070;14.492;2023-04-22T09:29:47;21.50;70.60
74153;DHT22;62505;46.070;14.492;2023-04-22T09:32:15;21.50;70.50
74153;DHT22;62505;46.070;14.492;2023-04-22T09:34:48;21.50;70.20
74153;DHT22;62505;46.070;14.492;2023-04-22T09:37:18;21.50;69.80
74153;DHT22;62505;46.070;14.492;2023-04-22T09:39:48;21.50;69.70
74153;DHT22;62505;46.070;14.492;2023-04-22T09:42:17;21.50;69.20
74153;DHT22;62505;46.070;14.492;2023-04-22T09:44:44;21.40;68.90
74153;DHT22;62505;46.070;14.492;2023-04-22T09:47:12;21.40;68.40
74153;DHT22;62505;46.070;14.492;2023-04-22T09:49:39;21.40;68.20
74153;DHT22;62505;46.070;14.492;2023-04-22T09:52:20;21.40;68.30
74153;DHT22;62505;46.070;14.492;2023-04-22T09:54:49;21.40;68.10
74153;DHT22;62505;46.070;14.492;2023-04-22T09:57:20;21.40;68.10
74153;DHT22;62505;46.070;14.492;2023-04-22T09:59:49;21.40;68.50
74153;DHT22;62505;46.070;14.492;2023-04-22T10:02:16;21.40;68.60
74153;DHT22;62505;46.070;14.492;2023-04-22T10:04:43;21.40;68.30
74153;DHT22;62505;46.070;14.492;2023-04-22T10:07:12;21.30;68.20
74153;DHT22;62505;46.070;14.492;2023-04-22T10:09:40;21.30;68.40
74153;DHT22;62505;46.070;14.492;2023-04-22T10:12:07;21.40;68.30
74153;DHT22;62505;46.070;14.492;2023-04-22T10:14:35;21.40;68.20
74153;DHT22;62505;46.070;14.492;2023-04-22T10:17:03;21.30;67.60
74153;DHT22;62505;46.070;14.492;2023-04-22T10:19:32;21.30;68.00
74153;DHT22;62505;46.070;14.492;2023-04-22T10:22:02;21.30;68.40
74153;DHT22;62505;46.070;14.492;2023-04-22T10:24:34;21.30;67.60
74153;DHT22;62505;46.070;14.492;2023-04-22T10:27:03;21.30;68.10
74153;DHT22;62505;46.070;14.492;2023-04-22T10:29:38;21.30;67.90
74153;DHT22;62505;46.070;14.492;2023-04-22T10:32:24;21.40;68.00
74153;DHT22;62505;46.070;14.492;2023-04-22T10:35:09;21.30;67.80
74153;DHT22;62505;46.070;14.492;2023-04-22T10:37:40;21.30;67.90
74153;DHT22;62505;46.070;14.492;2023-04-22T10:40:09;21.30;67.60
74153;DHT22;62505;46.070;14.492;2023-04-22T10:42:41;21.30;67.50
74153;DHT22;62505;46.070;14.492;2023-04-22T10:45:14;21.30;67.60
74153;DHT22;62505;46.070;14.492;2023-04-22T10:47:41;21.30;67.40
74153;DHT22;62505;46.070;14.492;2023-04-22T10:50:16;21.30;67.40
74153;DHT22;62505;46.070;14.492;2023-04-22T10:52:46;21.30;67.50
74153;DHT22;62505;46.070;14.492;2023-04-22T10:55:14;21.30;67.40
74153;DHT22;62505;46.070;14.492;2023-04-22T10:57:43;21.30;68.80
74153;DHT22;62505;46.070;14.492;2023-04-22T11:00:29;21.30;68.80
74153;DHT22;62505;46.070;14.492;2023-04-22T11:03:14;21.30;68.70
74153;DHT22;62505;46.070;14.492;2023-04-22T11:05:42;21.30;68.40
74153;DHT22;62505;46.070;14.492;2023-04-22T11:08:17;21.30;68.50
74153;DHT22;62505;46.070;14.492;2023-04-22T11:10:46;21.30;68.30
74153;DHT22;62505;46.070;14.492;2023-04-22T11:13:15;21.30;68.50
74153;DHT22;62505;46.070;14.492;2023-04-22T11:15:44;21.30;68.70
74153;DHT22;62505;46.070;14.492;2023-04-22T11:18:18;21.30;68.80
74153;DHT22;62505;46.070;14.492;2023-04-22T11:20:45;21.30;68.80
74153;DHT22;62505;46.070;14.492;2023-04-22T11:23:18;21.30;68.80
74153;DHT22;62505;46.070;14.492;2023-04-22T11:25:45;21.30;69.00
74153;DHT22;62505;46.070;14.492;2023-04-22T11:28:12;21.30;69.20
74153;DHT22;62505;46.070;14.492;2023-04-22T11:30:39;21.30;69.20
74153;DHT22;62505;46.070;14.492;2023-04-22T11:33:08;21.30;69.30
74153;DHT22;62505;46.070;14.492;2023-04-22T11:35:35;21.30;69.00
74153;DHT22;62505;46.070;14.492;2023-04-22T11:38:04;21.30;69.10
74153;DHT22;62505;46.070;14.492;2023-04-22T11:40:34;21.20;69.10
74153;DHT22;62505;46.070;14.492;2023-04-22T11:43:02;21.30;69.10
74153;DHT22;62505;46.070;14.492;2023-04-22T11:45:31;21.30;68.90
74153;DHT22;62505;46.070;14.492;2023-04-22T11:47:59;21.30;69.90
74153;DHT22;62505;46.070;14.492;2023-04-22T11:50:30;21.30;69.90
74153;DHT22;62505;46.070;14.492;2023-04-22T11:53:00;21.30;70.00
74153;DHT22;62505;46.070;14.492;2023-04-22T11:55:29;21.30;70.00
74153;DHT22;62505;46.070;14.492;2023-04-22T11:57:59;21.30;70.10
74153;DHT22;62505;46.070;14.492;2023-04-22T12:00:29;21.30;70.60
74153;DHT22;62505;46.070;14.492;2023-04-22T12:02:59;21.30;70.60
74153;DHT22;62505;46.070;14.492;2023-04-22T12:05:35;21.30;71.10
74153;DHT22;62505;46.070;14.492;2023-04-22T12:08:05;21.30;71.30
74153;DHT22;62505;46.070;14.492;2023-04-22T12:10:32;21.30;71.80
74153;DHT22;62505;46.070;14.492;2023-04-22T12:13:00;21.30;72.00
74153;DHT22;62505;46.070;14.492;2023-04-22T12:15:37;21.30;72.30
74153;DHT22;62505;46.070;14.492;2023-04-22T12:18:04;21.30;72.80
74153;DHT22;62505;46.070;14.492;2023-04-22T12:20:34;21.30;73.50
74153;DHT22;62505;46.070;14.492;2023-04-22T12:23:01;21.30;73.60
74153;DHT22;62505;46.070;14.492;2023-04-22T12:25:28;21.30;73.50
74153;DHT22;62505;46.070;14.492;2023-04-22T12:27:58;21.30;74.40
74153;DHT22;62505;46.070;14.492;2023-04-22T12:30:25;21.30;73.40
74153;DHT22;62505;46.070;14.492;2023-04-22T12:32:52;21.30;73.60
74153;DHT22;62505;46.070;14.492;2023-04-22T12:35:19;21.30;74.30
74153;DHT22;62505;46.070;14.492;2023-04-22T12:37:48;21.30;74.20
74153;DHT22;62505;46.070;14.492;2023-04-22T12:40:15;21.40;74.30
74153;DHT22;62505;46.070;14.492;2023-04-22T12:42:42;21.30;74.50
74153;DHT22;62505;46.070;14.492;2023-04-22T12:45:10;21.30;75.10
74153;DHT22;62505;46.070;14.492;2023-04-22T12:47:37;21.40;74.60
74153;DHT22;62505;46.070;14.492;2023-04-22T12:50:05;21.40;74.90
74153;DHT22;62505;46.070;14.492;2023-04-22T12:52:33;21.40;74.90
74153;DHT22;62505;46.070;14.492;2023-04-22T12:55:02;21.40;74.90
74153;DHT22;62505;46.070;14.492;2023-04-22T12:57:30;21.40;75.20
74153;DHT22;62505;46.070;14.492;2023-04-22T12:59:57;21.40;75.40
74153;DHT22;62505;46.070;14.492;2023-04-22T13:02:24;21.40;75.90
74153;DHT22;62505;46.070;14.492;2023-04-22T13:04:51;21.40;75.50
74153;DHT22;62505;46.070;14.492;2023-04-22T13:07:18;21.40;75.40
74153;DHT22;62505;46.070;14.492;2023-04-22T13:09:45;21.40;75.60
74153;DHT22;62505;46.070;14.492;2023-04-22T13:12:14;21.40;76.00
74153;DHT22;62505;46.070;14.492;2023-04-22T13:14:41;21.40;76.00
74153;DHT22;62505;46.070;14.492;2023-04-22T13:17:08;21.40;75.80
74153;DHT22;62505;46.070;14.492;2023-04-22T13:19:35;21.40;75.50
74153;DHT22;62505;46.070;14.492;2023-04-22T13:22:02;21.40;76.10
74153;DHT22;62505;46.070;14.492;2023-04-22T13:24:29;21.40;76.00
74153;DHT22;62505;46.070;14.492;2023-04-22T13:26:56;21.40;76.20
74153;DHT22;62505;46.070;14.492;2023-04-22T13:29:25;21.40;76.20
74153;DHT22;62505;46.070;14.492;2023-04-22T13:31:52;21.40;76.00
74153;DHT22;62505;46.070;14.492;2023-04-22T13:34:18;21.50;75.80
74153;DHT22;62505;46.070;14.492;2023-04-22T13:36:45;21.50;75.70
74153;DHT22;62505;46.070;14.492;2023-04-22T13:39:12;21.50;75.90
74153;DHT22;62505;46.070;14.492;2023-04-22T13:41:40;21.50;75.70
74153;DHT22;62505;46.070;14.492;2023-04-22T13:44:09;21.50;75.70
74153;DHT22;62505;46.070;14.492;2023-04-22T13:46:38;21.50;75.90
74153;DHT22;62505;46.070;14.492;2023-04-22T13:49:05;21.50;75.70
74153;DHT22;62505;46.070;14.492;2023-04-22T13:51:32;21.50;76.20
74153;DHT22;62505;46.070;14.492;2023-04-22T13:53:59;21.50;76.20
74153;DHT22;62505;46.070;14.492;2023-04-22T13:56:26;21.50;76.00
74153;DHT22;62505;46.070;14.492;2023-04-22T13:58:53;21.60;76.00
74153;DHT22;62505;46.070;14.492;2023-04-22T14:01:20;21.60;76.10
74153;DHT22;62505;46.070;14.492;2023-04-22T14:03:49;21.50;75.70
74153;DHT22;62505;46.070;14.492;2023-04-22T14:06:16;21.60;76.00
74153;DHT22;62505;46.070;14.492;2023-04-22T14:08:44;21.50;75.90
74153;DHT22;62505;46.070;14.492;2023-04-22T14:11:11;21.50;75.90
74153;DHT22;62505;46.070;14.492;2023-04-22T14:13:39;21.50;75.90
74153;DHT22;62505;46.070;14.492;2023-04-22T14:16:06;21.60;75.80
74153;DHT22;62505;46.070;14.492;2023-04-22T14:18:34;21.50;76.20
74153;DHT22;62505;46.070;14.492;2023-04-22T14:21:04;21.50;76.10
74153;DHT22;62505;46.070;14.492;2023-04-22T14:23:32;21.60;76.20
74153;DHT22;62505;46.070;14.492;2023-04-22T14:25:59;21.50;76.30
74153;DHT22;62505;46.070;14.492;2023-04-22T14:28:26;21.60;76.20
74153;DHT22;62505;46.070;14.492;2023-04-22T14:30:54;21.50;76.20
74153;DHT22;62505;46.070;14.492;2023-04-22T14:33:22;21.50;76.20
74153;DHT22;62505;46.070;14.492;2023-04-22T14:35:50;21.50;76.00
74153;DHT22;62505;46.070;14.492;2023-04-22T14:38:18;21.50;76.20
74153;DHT22;62505;46.070;14.492;2023-04-22T14:40:46;21.50;76.20
74153;DHT22;62505;46.070;14.492;2023-04-22T14:43:14;21.60;76.20
74153;DHT22;62505;46.070;14.492;2023-04-22T14:45:42;21.60;77.00
74153;DHT22;62505;46.070;14.492;2023-04-22T14:48:09;21.60;76.40
74153;DHT22;62505;46.070;14.492;2023-04-22T14:50:36;21.60;76.30
74153;DHT22;62505;46.070;14.492;2023-04-22T14:53:03;21.60;76.10
74153;DHT22;62505;46.070;14.492;2023-04-22T14:55:32;21.60;75.80
74153;DHT22;62505;46.070;14.492;2023-04-22T14:58:00;21.60;75.80
74153;DHT22;62505;46.070;14.492;2023-04-22T15:00:27;21.70;75.90
74153;DHT22;62505;46.070;14.492;2023-04-22T15:02:55;21.60;75.60
74153;DHT22;62505;46.070;14.492;2023-04-22T15:05:22;21.70;75.70
74153;DHT22;62505;46.070;14.492;2023-04-22T15:07:49;21.70;75.90
74153;DHT22;62505;46.070;14.492;2023-04-22T15:10:16;21.70;76.10
74153;DHT22;62505;46.070;14.492;2023-04-22T15:12:45;21.70;75.70
74153;DHT22;62505;46.070;14.492;2023-04-22T15:15:12;21.70;75.70
74153;DHT22;62505;46.070;14.492;2023-04-22T15:17:40;21.70;75.40
74153;DHT22;62505;46.070;14.492;2023-04-22T15:20:09;21.70;75.80